DAUT

Timimoun Airport

Timimoun, Algeria
METAR DAUT 190500Z 23010KT CAVOK 27/08 Q1015
Observed Flight Rules
Sep-19 @ 05:00 UTC (15 minutes ago) Visual Flight Rules
Wind Visibility Clouds
230° at 10 knots 10,000+ meters
  • Clear skies
Temperatures Readings
Current 27°C / 81°F
Dewpoint 8°C / 46°F
Humidity 30%
Altimeter 29.97" Hg
Pressure 1015 hPa
Elevation 312
METAR DAUT 190500Z 23010KT CAVOK 27/08 Q1015
Observed Flight Rules
Sep-19 @ 05:00 UTC
(15 minutes ago)
VFR
Wind Visibility
230° at 10 knots 10,000+ meters
Clouds
  • Clear skies
Temperature Dewpoint
27°C / 81°F 8°C / 46°F
Humidity Altimeter Pressure
30% 29.97" Hg 1015 hPa